Bosler, Wyoming
Current Conditions -  °F | °C
As of 1:53 AM on Friday 31 Oct 2014 (Local Time) from KLAR Reporting Station
Clear Clear  
Wind Chill: 26°   Ceiling: Unl
Heat Index: 37°   Visibility: 10mi
Dew Point: 24°   Wind: 22mph
Humidity: 59%   Direction: 150°SSE
Pressure: 30.34"   Gusts: NA
Location:  41.58°N, 105.7°W
Report Text: KLAR 310753Z AUTO 15019KT 10SM CLR 03/M04 A3034 RMK AO2 PK WND 16026/0735 SLP221 T00281044
Loading
Personal Weather Stations






























Interactive Weather Map
Tropical Storm Tracking
New forecast layout! Learn more

10-Day Weather Forecast

Advertisements
Track Severe Weather on mobile